createdAt,value
2022-11-08T00:00:51.574Z,16.00
2022-11-08T00:01:53.846Z,20.10
2022-11-08T00:02:57.896Z,17.00
2022-11-08T00:05:18.515Z,19.00
2022-11-08T00:06:20.584Z,17.30
2022-11-08T00:07:22.569Z,13.40
2022-11-08T00:08:24.647Z,16.10
2022-11-08T00:09:28.002Z,16.90
2022-11-08T00:10:30.141Z,16.10
2022-11-08T00:11:32.239Z,17.20
2022-11-08T00:12:34.347Z,14.10
2022-11-08T00:13:36.422Z,16.80
2022-11-08T00:14:39.545Z,20.73
2022-11-08T00:15:42.693Z,18.20
2022-11-08T00:16:44.940Z,17.00
2022-11-08T00:17:47.031Z,20.10
2022-11-08T00:18:49.118Z,18.90
2022-11-08T00:19:51.849Z,16.70
2022-11-08T00:20:54.230Z,15.64
2022-11-08T00:21:56.313Z,14.60
2022-11-08T00:22:58.623Z,16.40
2022-11-08T00:24:01.038Z,17.00
2022-11-08T00:25:03.547Z,18.00
2022-11-08T00:26:05.984Z,18.91
2022-11-08T00:27:12.455Z,15.50
2022-11-08T00:28:15.794Z,20.80
2022-11-08T00:29:18.274Z,16.50
2022-11-08T00:30:20.377Z,17.80
2022-11-08T00:31:22.945Z,17.70
2022-11-08T00:32:25.311Z,18.80
2022-11-08T00:33:27.439Z,17.10
2022-11-08T00:34:29.422Z,12.80
2022-11-08T00:35:32.570Z,19.20
2022-11-08T00:36:35.863Z,19.80
2022-11-08T00:37:38.223Z,16.70
2022-11-08T00:38:41.608Z,19.00
2022-11-08T00:39:43.741Z,18.00
2022-11-08T00:40:45.918Z,18.30
2022-11-08T00:41:48.014Z,13.50
2022-11-08T00:42:50.512Z,16.10
2022-11-08T00:43:52.604Z,18.30
2022-11-08T00:44:54.675Z,18.50
2022-11-08T00:45:56.800Z,18.60
2022-11-08T00:46:59.245Z,19.00
2022-11-08T00:48:01.336Z,19.20
2022-11-08T00:49:03.421Z,16.80
2022-11-08T00:50:06.800Z,18.90
2022-11-08T00:51:09.835Z,19.40
2022-11-08T00:52:11.977Z,16.60
2022-11-08T00:53:14.070Z,21.00
2022-11-08T00:54:17.575Z,15.90
2022-11-08T00:55:19.692Z,19.30
2022-11-08T00:56:22.194Z,19.50
2022-11-08T00:57:35.908Z,18.40
2022-11-08T00:58:28.862Z,21.20
2022-11-08T00:59:31.412Z,23.20
2022-11-08T01:00:33.600Z,19.70
2022-11-08T01:01:38.286Z,18.20
2022-11-08T01:02:40.904Z,21.40
2022-11-08T01:03:43.943Z,21.50
2022-11-08T01:04:47.226Z,21.90
2022-11-08T01:05:51.618Z,22.20
2022-11-08T01:06:54.074Z,22.80
2022-11-08T01:07:56.175Z,23.40
2022-11-08T01:08:59.817Z,23.90
2022-11-08T01:10:02.150Z,25.40
2022-11-08T01:11:06.859Z,26.00
2022-11-08T01:12:10.106Z,25.50
2022-11-08T01:13:13.597Z,27.09
2022-11-08T01:14:16.375Z,28.00
2022-11-08T01:15:18.965Z,23.80
2022-11-08T01:16:22.540Z,26.30
2022-11-08T01:17:24.674Z,24.20
2022-11-08T01:18:26.851Z,24.90
2022-11-08T01:19:28.755Z,23.78
2022-11-08T01:20:32.182Z,24.55
2022-11-08T01:21:34.826Z,23.90
2022-11-08T01:22:37.420Z,24.80
2022-11-08T01:23:40.154Z,26.70
2022-11-08T01:24:42.294Z,22.18
2022-11-08T01:25:45.598Z,23.60
2022-11-08T01:26:49.938Z,22.90
2022-11-08T01:27:52.141Z,24.60
2022-11-08T01:28:54.334Z,22.20
2022-11-08T01:29:56.811Z,18.20
2022-11-08T01:31:04.372Z,24.20
2022-11-08T01:32:06.646Z,23.50
2022-11-08T01:33:08.839Z,21.00
2022-11-08T01:34:10.929Z,26.70
2022-11-08T01:35:13.140Z,22.00
2022-11-08T01:36:17.430Z,23.20
2022-11-08T01:37:19.571Z,20.60
2022-11-08T01:38:21.653Z,24.10
2022-11-08T01:39:23.741Z,22.20
2022-11-08T01:40:27.195Z,23.30
2022-11-08T01:41:30.154Z,22.27
2022-11-08T01:42:32.394Z,23.18
2022-11-08T01:45:03.086Z,19.40
2022-11-08T01:46:24.672Z,21.20
2022-11-08T01:47:27.414Z,26.10
2022-11-08T01:48:29.368Z,23.10
2022-11-08T01:50:45.652Z,21.00
2022-11-08T01:52:01.431Z,20.20
2022-11-08T01:53:03.567Z,21.00
2022-11-08T01:54:08.959Z,22.20
2022-11-08T01:55:15.353Z,17.90
2022-11-08T01:56:18.499Z,22.40
2022-11-08T01:57:26.876Z,23.70
2022-11-08T01:58:30.819Z,22.20
2022-11-08T01:59:33.461Z,20.20
2022-11-08T02:02:09.348Z,20.00
2022-11-08T02:03:13.665Z,21.40
2022-11-08T02:04:16.354Z,20.90
2022-11-08T02:05:19.110Z,20.20
2022-11-08T02:06:21.205Z,16.70
2022-11-08T02:07:23.984Z,21.50
2022-11-08T02:08:37.954Z,19.27
2022-11-08T02:09:41.931Z,20.50
2022-11-08T02:10:45.276Z,19.30
2022-11-08T02:11:47.669Z,22.00
2022-11-08T02:12:51.174Z,20.80
2022-11-08T02:13:53.901Z,20.50
2022-11-08T02:14:57.255Z,17.30
2022-11-08T02:16:00.142Z,18.45
2022-11-08T02:17:02.377Z,19.60
2022-11-08T02:18:04.703Z,19.20
2022-11-08T02:19:08.304Z,21.00
2022-11-08T02:20:11.048Z,18.40
2022-11-08T02:22:39.948Z,22.60
2022-11-08T02:23:51.417Z,19.20
2022-11-08T02:24:54.389Z,21.10
2022-11-08T02:25:56.555Z,19.20
2022-11-08T02:26:58.660Z,15.00
2022-11-08T02:28:00.879Z,20.80
2022-11-08T02:29:22.907Z,15.90
2022-11-08T02:30:33.687Z,19.80
2022-11-08T02:31:35.916Z,15.10
2022-11-08T02:32:39.740Z,18.30
2022-11-08T02:33:42.249Z,18.00
2022-11-08T02:34:50.662Z,17.70
2022-11-08T02:35:55.075Z,18.30
2022-11-08T02:36:58.182Z,19.60
2022-11-08T02:38:00.307Z,18.80
2022-11-08T02:39:02.995Z,17.80
2022-11-08T02:40:06.399Z,17.36
2022-11-08T02:41:09.032Z,17.60
2022-11-08T02:42:15.566Z,18.90
2022-11-08T02:43:18.008Z,17.00
2022-11-08T02:44:20.957Z,17.10
2022-11-08T02:45:23.921Z,19.70
2022-11-08T02:46:26.044Z,16.30
2022-11-08T02:47:29.175Z,16.70
2022-11-08T02:48:31.568Z,17.90
2022-11-08T02:49:33.553Z,16.10
2022-11-08T02:50:35.761Z,19.30
2022-11-08T02:51:38.574Z,19.90
2022-11-08T02:52:40.714Z,16.73
2022-11-08T02:53:44.031Z,17.80
2022-11-08T02:54:46.173Z,17.60
2022-11-08T02:55:48.173Z,17.50
2022-11-08T02:56:50.789Z,16.40
2022-11-08T02:57:53.723Z,16.10
2022-11-08T02:58:55.792Z,20.18
2022-11-08T02:59:58.043Z,16.80
2022-11-08T03:01:01.266Z,16.80
2022-11-08T03:02:03.610Z,17.10
2022-11-08T03:03:05.944Z,17.40
2022-11-08T03:04:08.105Z,18.00
2022-11-08T03:05:10.304Z,17.10
2022-11-08T03:06:14.365Z,15.00
2022-11-08T03:07:22.131Z,16.00
2022-11-08T03:08:22.360Z,16.30
2022-11-08T03:09:24.506Z,17.00
2022-11-08T03:10:28.280Z,14.55
2022-11-08T03:11:31.404Z,16.90
2022-11-08T03:12:33.505Z,17.30
2022-11-08T03:13:35.511Z,16.70
2022-11-08T03:14:37.935Z,16.40
2022-11-08T03:15:40.595Z,18.40
2022-11-08T03:16:43.981Z,15.50
2022-11-08T03:17:46.078Z,17.40
2022-11-08T03:18:49.152Z,16.80
2022-11-08T03:19:51.257Z,16.50
2022-11-08T03:20:53.379Z,18.00
2022-11-08T03:21:55.485Z,17.70
2022-11-08T03:22:59.226Z,15.09
2022-11-08T03:24:02.389Z,10.10
2022-11-08T03:25:05.990Z,15.00
2022-11-08T03:26:09.200Z,15.60
2022-11-08T03:27:12.313Z,18.00
2022-11-08T03:28:16.388Z,17.20
2022-11-08T03:29:18.448Z,16.10
2022-11-08T03:30:20.539Z,17.00
2022-11-08T03:31:22.717Z,17.70
2022-11-08T03:32:24.816Z,17.70
2022-11-08T03:33:26.908Z,13.80
2022-11-08T03:34:29.014Z,15.30
2022-11-08T03:35:31.599Z,17.70
2022-11-08T03:36:35.309Z,15.10
2022-11-08T03:37:37.400Z,16.00
2022-11-08T03:38:39.432Z,18.11
2022-11-08T03:39:41.385Z,16.33
2022-11-08T03:40:44.663Z,14.40
2022-11-08T03:41:46.794Z,15.50
2022-11-08T03:42:49.090Z,15.50
2022-11-08T03:43:51.090Z,17.50
2022-11-08T03:44:53.778Z,17.30
2022-11-08T03:45:56.063Z,17.50
2022-11-08T03:46:59.262Z,15.20
2022-11-08T03:48:01.412Z,15.80
2022-11-08T03:49:03.517Z,11.40
2022-11-08T03:50:06.778Z,15.90
2022-11-08T03:51:08.926Z,17.60
2022-11-08T03:52:11.161Z,16.80
2022-11-08T03:53:13.711Z,17.00
2022-11-08T03:54:16.552Z,15.20
2022-11-08T03:55:20.017Z,12.60
2022-11-08T03:56:22.310Z,14.80
2022-11-08T03:57:25.145Z,11.27
2022-11-08T03:58:27.163Z,13.90
2022-11-08T03:59:29.297Z,15.40
2022-11-08T04:00:31.388Z,14.40
2022-11-08T04:01:33.703Z,15.90
2022-11-08T04:02:36.639Z,15.27
2022-11-08T04:03:38.893Z,10.80
2022-11-08T04:04:40.991Z,16.80
2022-11-08T04:05:43.552Z,15.60
2022-11-08T04:06:46.163Z,13.40
2022-11-08T04:07:48.174Z,14.00
2022-11-08T04:08:52.269Z,14.80
2022-11-08T04:09:55.117Z,15.50
2022-11-08T04:10:57.460Z,16.40
2022-11-08T04:11:59.562Z,16.30
2022-11-08T04:13:01.554Z,15.90
2022-11-08T04:14:03.552Z,15.10
2022-11-08T04:15:06.547Z,16.90
2022-11-08T04:16:15.232Z,14.00
2022-11-08T04:17:14.515Z,11.00
2022-11-08T04:18:17.082Z,18.00
2022-11-08T04:19:20.240Z,16.60
2022-11-08T04:20:22.338Z,15.80
2022-11-08T04:21:24.442Z,15.50
2022-11-08T04:22:26.653Z,19.70
2022-11-08T04:23:30.003Z,16.67
2022-11-08T04:24:32.869Z,14.90
2022-11-08T04:25:35.451Z,15.60
2022-11-08T04:26:41.736Z,15.30
2022-11-08T04:27:44.914Z,15.90
2022-11-08T04:28:47.013Z,16.30
2022-11-08T04:29:50.035Z,16.10
2022-11-08T04:30:54.436Z,15.40
2022-11-08T04:31:56.954Z,12.60
2022-11-08T04:33:00.216Z,12.90
2022-11-08T04:34:05.396Z,14.30
2022-11-08T04:35:08.200Z,16.80
2022-11-08T04:36:12.647Z,14.70
2022-11-08T04:37:14.778Z,14.60
2022-11-08T04:38:17.414Z,15.50
2022-11-08T04:39:19.712Z,14.18
2022-11-08T04:40:21.814Z,13.20
2022-11-08T04:41:24.296Z,15.60
2022-11-08T04:42:28.480Z,11.70
2022-11-08T04:43:31.091Z,14.00
2022-11-08T04:44:34.396Z,15.30
2022-11-08T04:45:36.484Z,15.10
2022-11-08T04:46:38.661Z,14.90
2022-11-08T04:47:45.749Z,10.50
2022-11-08T04:48:46.357Z,15.50
2022-11-08T04:49:48.449Z,11.00
2022-11-08T04:50:51.474Z,11.00
2022-11-08T04:51:54.421Z,11.30
2022-11-08T04:52:57.104Z,15.27
2022-11-08T04:54:00.305Z,14.10
2022-11-08T04:55:02.772Z,12.80
2022-11-08T04:56:08.305Z,11.70
2022-11-08T04:57:11.110Z,14.20
2022-11-08T04:58:13.275Z,14.55
2022-11-08T04:59:15.364Z,14.40
2022-11-08T05:00:19.060Z,12.10
2022-11-08T05:01:22.874Z,14.10
2022-11-08T05:02:25.704Z,15.10
2022-11-08T05:03:28.953Z,14.10
2022-11-08T05:04:31.358Z,15.60
2022-11-08T05:05:33.373Z,14.30
2022-11-08T05:06:35.468Z,13.70
2022-11-08T05:07:37.519Z,16.56
2022-11-08T05:08:40.372Z,14.55
2022-11-08T05:09:43.383Z,12.60
2022-11-08T05:10:45.485Z,14.70
2022-11-08T05:11:47.590Z,11.80
2022-11-08T05:12:54.602Z,14.50
2022-11-08T05:13:56.861Z,12.70
2022-11-08T05:14:58.982Z,11.50
2022-11-08T05:17:15.838Z,14.70
2022-11-08T05:18:18.094Z,12.55
2022-11-08T05:19:20.385Z,14.70
2022-11-08T05:20:22.784Z,12.70
2022-11-08T05:21:25.883Z,13.80
2022-11-08T05:22:27.882Z,12.30
2022-11-08T05:23:29.989Z,12.00
2022-11-08T05:24:33.109Z,11.30
2022-11-08T05:25:37.827Z,13.60
2022-11-08T05:26:40.891Z,13.50
2022-11-08T05:27:43.825Z,12.30
2022-11-08T05:28:46.921Z,13.10
2022-11-08T05:29:49.092Z,12.10
2022-11-08T05:30:52.603Z,13.80
2022-11-08T05:31:55.059Z,15.60
2022-11-08T05:32:57.074Z,13.90
2022-11-08T05:33:59.339Z,14.00
2022-11-08T05:35:02.125Z,15.20
2022-11-08T05:36:09.952Z,15.70
2022-11-08T05:37:12.115Z,15.60
2022-11-08T05:38:14.191Z,14.90
2022-11-08T05:39:17.338Z,13.10
2022-11-08T05:40:20.115Z,11.80
2022-11-08T05:41:23.211Z,13.80
2022-11-08T05:42:25.438Z,15.90
2022-11-08T05:43:27.524Z,14.60
2022-11-08T05:44:29.501Z,16.20
2022-11-08T05:45:33.667Z,17.10
2022-11-08T05:46:35.809Z,17.10
2022-11-08T05:47:37.919Z,14.90
2022-11-08T05:48:44.147Z,16.50
2022-11-08T05:49:46.324Z,15.90
2022-11-08T05:50:48.676Z,14.50
2022-11-08T05:51:52.027Z,14.90
2022-11-08T05:52:54.156Z,16.90
2022-11-08T05:53:56.152Z,13.30
2022-11-08T05:54:59.536Z,15.80
2022-11-08T05:56:01.877Z,15.80
2022-11-08T05:57:03.943Z,16.60
2022-11-08T05:58:06.903Z,15.50
2022-11-08T05:59:09.401Z,16.20
2022-11-08T06:00:12.676Z,19.20
2022-11-08T06:01:16.879Z,14.80
2022-11-08T06:02:19.195Z,15.20
2022-11-08T06:03:23.692Z,15.90
2022-11-08T06:04:25.713Z,17.20
2022-11-08T06:05:27.704Z,16.40
2022-11-08T06:06:29.749Z,15.78
2022-11-08T06:07:31.870Z,16.70
2022-11-08T06:08:34.478Z,16.50
2022-11-08T06:09:37.384Z,14.70
2022-11-08T06:10:39.858Z,10.40
2022-11-08T06:11:42.788Z,14.90
2022-11-08T06:12:44.863Z,14.80
2022-11-08T06:13:47.990Z,11.70
2022-11-08T06:14:50.106Z,7.20
2022-11-08T06:15:52.197Z,14.40
2022-11-08T06:16:54.559Z,16.30
2022-11-08T06:18:01.565Z,16.30
2022-11-08T06:19:03.787Z,14.90
2022-11-08T06:20:07.889Z,15.60
2022-11-08T06:21:19.690Z,17.40
2022-11-08T06:22:21.993Z,15.30
2022-11-08T06:23:23.986Z,17.70
2022-11-08T06:24:28.291Z,16.50
2022-11-08T06:25:30.438Z,14.50
2022-11-08T06:26:33.733Z,17.10
2022-11-08T06:27:35.961Z,14.70
2022-11-08T06:28:38.159Z,14.30
2022-11-08T06:29:40.645Z,16.80
2022-11-08T06:30:42.755Z,13.60
2022-11-08T06:31:45.547Z,16.80
2022-11-08T06:32:47.707Z,17.09
2022-11-08T06:33:50.789Z,16.80
2022-11-08T06:34:52.897Z,15.80
2022-11-08T06:35:54.978Z,15.40
2022-11-08T06:36:57.657Z,16.40
2022-11-08T06:38:04.483Z,16.40
2022-11-08T06:39:06.177Z,16.70
2022-11-08T06:40:10.204Z,17.18
2022-11-08T06:41:19.118Z,15.50
2022-11-08T06:42:21.271Z,11.70
2022-11-08T06:43:23.722Z,18.60
2022-11-08T06:44:27.121Z,16.70
2022-11-08T06:45:29.658Z,10.60
2022-11-08T06:46:31.748Z,16.90
2022-11-08T06:47:33.753Z,19.60
2022-11-08T06:48:36.430Z,16.80
2022-11-08T06:49:38.542Z,15.60
2022-11-08T06:50:41.131Z,15.00
2022-11-08T06:51:43.224Z,18.20
2022-11-08T06:52:45.339Z,18.80
2022-11-08T06:53:47.444Z,16.40
2022-11-08T06:54:50.706Z,19.09
2022-11-08T06:55:52.821Z,18.30
2022-11-08T10:14:34.091Z,18.00
2022-11-08T10:16:58.238Z,20.70
2022-11-08T10:18:19.450Z,20.40
2022-11-08T10:19:34.248Z,19.50
2022-11-08T10:22:24.581Z,18.00
2022-11-08T10:25:03.537Z,19.60
2022-11-08T10:26:27.256Z,19.80
2022-11-08T10:27:35.106Z,21.00
2022-11-08T10:28:43.453Z,17.30
2022-11-08T10:29:46.893Z,19.80
2022-11-08T10:30:50.929Z,19.90
2022-11-08T10:31:58.295Z,22.40
2022-11-08T10:33:00.451Z,19.00
2022-11-08T10:34:03.117Z,20.00
2022-11-08T10:35:20.667Z,21.10
2022-11-08T10:37:50.615Z,18.60
2022-11-08T10:39:05.556Z,23.20
2022-11-08T10:40:16.221Z,16.00
2022-11-08T10:41:41.992Z,19.80
2022-11-08T10:42:52.640Z,20.60
2022-11-08T10:44:12.666Z,19.20
2022-11-08T10:45:16.049Z,23.20
2022-11-08T10:46:49.886Z,22.18
2022-11-08T10:47:53.763Z,21.00
2022-11-08T10:48:58.043Z,24.70
2022-11-08T10:50:04.126Z,24.60
2022-11-08T10:51:04.938Z,24.50
2022-11-08T10:52:45.812Z,24.36
2022-11-08T10:53:47.997Z,24.30
2022-11-08T10:55:01.239Z,25.10
2022-11-08T10:56:06.108Z,25.00
2022-11-08T10:57:09.601Z,24.00
2022-11-08T10:58:40.673Z,18.00
2022-11-08T10:59:43.926Z,25.40
2022-11-08T11:00:51.923Z,21.70
2022-11-08T11:01:55.020Z,21.70
2022-11-08T11:03:04.567Z,22.80
2022-11-08T11:04:10.653Z,18.60
2022-11-08T11:05:20.190Z,20.20
2022-11-08T11:06:28.685Z,23.70
2022-11-08T11:07:35.153Z,21.70
2022-11-08T11:08:41.141Z,23.50
2022-11-08T11:09:43.299Z,20.70
2022-11-08T11:10:46.503Z,22.60
2022-11-08T11:12:00.946Z,22.90
2022-11-08T11:13:13.500Z,23.30
2022-11-08T11:14:21.932Z,22.00
2022-11-08T11:15:23.934Z,21.00
2022-11-08T11:16:26.125Z,21.73
2022-11-08T11:17:35.523Z,19.70
2022-11-08T11:18:46.943Z,22.40
2022-11-08T11:21:14.653Z,21.70
2022-11-08T11:22:17.470Z,23.40
2022-11-08T11:23:20.127Z,20.60
2022-11-08T11:24:24.017Z,20.30
2022-11-08T11:25:26.259Z,21.40
2022-11-08T11:26:32.844Z,20.80
2022-11-08T11:27:36.505Z,21.20
2022-11-08T11:28:39.182Z,25.20
2022-11-08T11:29:41.657Z,23.00
2022-11-08T11:30:44.854Z,23.50
2022-11-08T11:31:48.311Z,22.60
2022-11-08T11:33:07.073Z,20.70
2022-11-08T11:34:30.926Z,24.00
2022-11-08T11:35:44.661Z,24.60
2022-11-08T11:36:56.379Z,24.70
2022-11-08T11:37:58.554Z,20.90
2022-11-08T11:39:03.071Z,22.80
2022-11-08T11:40:24.362Z,25.80
2022-11-08T11:43:06.803Z,24.70
2022-11-08T11:45:58.975Z,25.20
2022-11-08T11:47:09.457Z,28.40
2022-11-08T11:48:28.910Z,27.20
2022-11-08T11:49:33.813Z,22.20
2022-11-08T11:51:52.938Z,21.20
2022-11-08T11:52:57.079Z,23.30
2022-11-08T11:54:01.140Z,24.70
2022-11-08T11:55:04.570Z,23.10
2022-11-08T11:56:14.162Z,25.00
2022-11-08T11:57:35.593Z,26.30
2022-11-08T11:58:58.391Z,28.90
2022-11-08T12:00:11.681Z,26.20
2022-11-08T12:01:28.463Z,29.30
2022-11-08T12:04:36.094Z,29.60
2022-11-08T12:05:58.533Z,33.60
2022-11-08T12:07:12.426Z,33.50
2022-11-08T12:08:27.628Z,31.50
2022-11-08T12:09:56.309Z,29.20
2022-11-08T12:11:13.839Z,33.80
2022-11-08T12:12:22.861Z,33.30
2022-11-08T12:13:54.621Z,32.70
2022-11-08T12:15:06.758Z,32.20
2022-11-08T12:16:17.281Z,33.00
2022-11-08T12:17:49.154Z,33.40
2022-11-08T12:19:13.667Z,33.90
2022-11-08T12:20:37.931Z,32.30
2022-11-08T12:21:47.242Z,31.90
2022-11-08T12:23:08.905Z,33.10
2022-11-08T12:24:30.176Z,31.60
2022-11-08T12:25:38.943Z,34.20
2022-11-08T12:27:10.617Z,33.60
2022-11-08T12:30:08.246Z,32.70
2022-11-08T12:31:36.037Z,31.60
2022-11-08T12:32:57.911Z,33.40
2022-11-08T12:34:07.693Z,31.30
2022-11-08T12:35:29.097Z,30.60
2022-11-08T12:36:49.902Z,27.30
2022-11-08T12:38:04.998Z,30.00
2022-11-08T12:39:11.028Z,30.30
2022-11-08T12:41:53.017Z,29.50
2022-11-08T12:43:17.341Z,32.40
2022-11-08T12:46:09.765Z,29.30
2022-11-08T12:47:40.639Z,29.70
2022-11-08T12:49:02.566Z,29.40
2022-11-08T12:50:43.462Z,28.70
2022-11-08T12:52:16.211Z,29.10
2022-11-08T12:53:28.256Z,31.40
2022-11-08T12:54:36.643Z,30.80
2022-11-08T12:55:40.132Z,28.70
2022-11-08T12:56:44.802Z,29.90
2022-11-08T12:57:47.927Z,30.50
2022-11-08T12:58:53.457Z,30.20
2022-11-08T13:00:04.437Z,26.00
2022-11-08T13:02:27.152Z,29.80
2022-11-08T13:03:46.100Z,26.90
2022-11-08T13:05:03.469Z,27.90
2022-11-08T13:08:08.606Z,25.90
2022-11-08T13:09:30.645Z,26.60
2022-11-08T13:10:55.190Z,29.10
2022-11-08T13:12:01.213Z,19.40
2022-11-08T13:13:22.352Z,26.80
2022-11-08T13:14:25.028Z,24.30
2022-11-08T13:15:27.936Z,28.80
2022-11-08T13:16:36.964Z,29.73
2022-11-08T13:17:39.518Z,28.80
2022-11-08T13:18:52.714Z,27.70
2022-11-08T13:21:31.759Z,28.60
2022-11-08T13:22:40.492Z,26.10
2022-11-08T13:23:42.530Z,29.10
2022-11-08T13:24:45.959Z,26.60
2022-11-08T13:25:48.358Z,28.90
2022-11-08T13:26:53.752Z,23.80
2022-11-08T13:27:55.457Z,27.40
2022-11-08T13:29:15.495Z,29.40
2022-11-08T13:30:22.072Z,27.00
2022-11-08T13:31:50.488Z,28.90
2022-11-08T13:33:11.851Z,21.30
2022-11-08T13:34:20.883Z,28.10
2022-11-08T13:35:50.230Z,27.50
2022-11-08T13:37:18.053Z,24.70
2022-11-08T13:38:33.194Z,28.30
2022-11-08T13:39:48.363Z,23.80
2022-11-08T13:41:11.279Z,30.00
2022-11-08T13:42:20.268Z,31.00
2022-11-08T13:43:25.593Z,29.00
2022-11-08T13:44:57.452Z,28.20
2022-11-08T13:46:23.620Z,18.10
2022-11-08T13:47:35.599Z,29.40
2022-11-08T13:48:40.027Z,24.60
2022-11-08T13:49:43.005Z,29.40
2022-11-08T13:52:24.629Z,25.00
2022-11-08T13:54:58.593Z,27.60
2022-11-08T13:56:08.230Z,26.30
2022-11-08T13:57:19.627Z,29.40
2022-11-08T13:58:37.980Z,28.80
2022-11-08T13:59:43.964Z,28.70
2022-11-08T14:00:46.493Z,31.40
2022-11-08T14:01:56.165Z,28.55
2022-11-08T14:02:59.587Z,30.90
2022-11-08T14:04:01.854Z,30.90
2022-11-08T14:05:23.239Z,28.20
2022-11-08T14:08:21.393Z,26.90
2022-11-08T14:11:30.082Z,27.20
2022-11-08T14:12:55.153Z,30.00
2022-11-08T17:55:40.741Z,37.50
2022-11-08T17:56:43.736Z,39.10
2022-11-08T17:57:46.616Z,34.70
2022-11-08T17:58:49.662Z,35.40
2022-11-08T17:59:52.638Z,35.00
2022-11-08T18:00:56.303Z,32.00
2022-11-08T18:01:58.781Z,35.00
2022-11-08T18:03:02.988Z,35.50
2022-11-08T18:04:05.318Z,35.90
2022-11-08T18:05:07.859Z,34.60
2022-11-08T18:06:12.386Z,35.00
2022-11-08T18:07:14.636Z,35.20
2022-11-08T18:08:17.044Z,36.70
2022-11-08T18:09:19.277Z,32.60
2022-11-08T18:10:21.376Z,8.80
2022-11-08T18:11:23.586Z,32.10
2022-11-08T18:12:26.521Z,34.80
2022-11-08T18:13:28.630Z,34.30
2022-11-08T18:14:31.373Z,32.60
2022-11-08T18:15:33.398Z,34.80
2022-11-08T18:16:37.794Z,31.90
2022-11-08T18:17:39.938Z,34.90
2022-11-08T18:18:43.697Z,31.70
2022-11-08T18:19:46.170Z,34.00
2022-11-08T18:20:53.942Z,32.90
2022-11-08T18:21:57.203Z,35.20
2022-11-08T18:22:59.313Z,30.60
2022-11-08T18:24:01.374Z,34.11
2022-11-08T18:25:04.340Z,30.90
2022-11-08T18:26:09.551Z,33.70
2022-11-08T18:28:28.157Z,34.40
2022-11-08T18:29:31.337Z,34.20
2022-11-08T18:30:34.554Z,28.00
2022-11-08T18:31:36.727Z,28.10
2022-11-08T18:32:38.958Z,35.60
2022-11-08T18:33:41.429Z,33.80
2022-11-08T18:34:43.683Z,33.20
2022-11-08T18:35:46.023Z,33.30
2022-11-08T18:36:51.264Z,31.50
2022-11-08T18:37:54.793Z,32.80
2022-11-08T18:39:00.593Z,34.90
2022-11-08T18:40:04.622Z,33.60
2022-11-08T18:41:08.412Z,30.90
2022-11-08T18:42:10.711Z,31.90
2022-11-08T18:43:13.452Z,31.30
2022-11-08T18:44:15.702Z,31.00
2022-11-08T18:45:20.247Z,28.80
2022-11-08T18:46:23.472Z,32.20
2022-11-08T18:47:25.668Z,32.60
2022-11-08T18:48:29.096Z,31.50
2022-11-08T18:49:32.394Z,32.80
2022-11-08T18:50:35.831Z,33.30
2022-11-08T18:51:38.814Z,33.30
2022-11-08T18:52:45.673Z,34.73
2022-11-08T18:53:48.248Z,34.40
2022-11-08T18:54:50.254Z,35.30
2022-11-08T18:55:53.567Z,36.10
2022-11-08T18:56:55.831Z,32.90
2022-11-08T18:57:58.039Z,33.50
2022-11-08T18:59:00.616Z,25.80
2022-11-08T19:00:03.977Z,34.80
2022-11-08T19:01:06.519Z,33.80
2022-11-08T19:02:10.315Z,34.90
2022-11-08T19:03:12.655Z,35.20
2022-11-08T19:04:14.810Z,33.80
2022-11-08T19:05:17.755Z,36.30
2022-11-08T19:06:21.073Z,36.27
2022-11-08T19:07:23.646Z,38.50
2022-11-08T19:08:28.149Z,34.90
2022-11-08T19:09:30.417Z,31.10
2022-11-08T19:10:34.125Z,33.80
2022-11-08T19:11:37.595Z,35.10
2022-11-08T19:12:40.585Z,35.90
2022-11-08T19:13:43.225Z,36.80
2022-11-08T19:14:46.850Z,31.90
2022-11-08T19:17:09.225Z,34.20
2022-11-08T19:18:11.346Z,35.20
2022-11-08T19:19:14.334Z,36.20
2022-11-08T19:20:18.817Z,34.50
2022-11-08T19:21:23.905Z,34.10
2022-11-08T19:22:27.191Z,33.90
2022-11-08T19:23:35.882Z,30.40
2022-11-08T19:24:43.658Z,37.50
2022-11-08T19:26:03.024Z,36.10
2022-11-08T19:27:11.949Z,36.80
2022-11-08T19:28:16.516Z,36.10
2022-11-08T19:29:20.107Z,33.00
2022-11-08T19:30:22.366Z,35.20
2022-11-08T19:31:24.722Z,33.50
2022-11-08T19:32:31.430Z,33.30
2022-11-08T19:33:34.232Z,35.70
2022-11-08T19:34:37.339Z,37.70
2022-11-08T19:35:41.668Z,34.73
2022-11-08T19:36:44.034Z,33.00
2022-11-08T19:37:48.229Z,35.73
2022-11-08T19:38:51.986Z,35.00
2022-11-08T19:39:59.478Z,33.90
2022-11-08T19:42:21.762Z,33.20
2022-11-08T19:43:24.023Z,36.20
2022-11-08T19:44:26.216Z,34.10
2022-11-08T19:45:28.209Z,33.90
2022-11-08T19:46:30.313Z,36.30
2022-11-08T19:47:32.408Z,35.70
2022-11-08T19:48:37.728Z,36.60
2022-11-08T19:49:40.181Z,33.30
2022-11-08T19:50:43.694Z,34.50
2022-11-08T19:51:47.104Z,34.60
2022-11-08T19:52:49.575Z,35.10
2022-11-08T19:53:57.005Z,38.60
2022-11-08T19:54:59.174Z,34.80
2022-11-08T19:56:02.751Z,34.70
2022-11-08T19:57:06.641Z,33.80
2022-11-08T19:58:08.901Z,37.30
2022-11-08T19:59:11.574Z,35.70
2022-11-08T20:00:14.409Z,36.18
2022-11-08T20:01:21.566Z,36.70
2022-11-08T20:02:24.594Z,36.20
2022-11-08T20:04:40.834Z,35.20
2022-11-08T20:05:42.902Z,36.18
2022-11-08T20:06:49.517Z,33.60
2022-11-08T20:07:51.948Z,39.80
2022-11-08T20:08:54.531Z,36.70
2022-11-08T20:09:57.226Z,36.55
2022-11-08T20:11:00.469Z,36.55
2022-11-08T20:12:04.113Z,23.10
2022-11-08T20:13:07.490Z,31.70
2022-11-08T20:14:11.926Z,36.50
2022-11-08T20:15:13.997Z,39.40
2022-11-08T20:16:21.207Z,36.60
2022-11-08T20:17:24.084Z,36.10
2022-11-08T20:18:26.885Z,35.70
2022-11-08T20:19:30.069Z,38.40
2022-11-08T20:20:33.368Z,37.20
2022-11-08T20:21:36.806Z,21.80
2022-11-08T20:22:41.041Z,35.27
2022-11-08T20:23:45.905Z,37.00
2022-11-08T20:24:48.635Z,36.10
2022-11-08T20:25:51.200Z,40.30
2022-11-08T20:26:54.510Z,36.45
2022-11-08T20:27:56.779Z,33.50
2022-11-08T20:28:59.096Z,35.80
2022-11-08T20:30:02.765Z,36.91
2022-11-08T20:31:06.665Z,37.50
2022-11-08T20:32:09.328Z,39.90
2022-11-08T20:33:11.745Z,36.00
2022-11-08T20:34:16.242Z,36.80
2022-11-08T20:35:23.534Z,38.70
2022-11-08T20:36:24.966Z,38.40
2022-11-08T20:37:27.124Z,38.30
2022-11-08T20:38:29.336Z,34.20
2022-11-08T20:39:31.364Z,23.10
2022-11-08T20:40:33.586Z,35.70
2022-11-08T20:41:36.401Z,35.80
2022-11-08T20:42:39.745Z,37.50
2022-11-08T20:43:43.310Z,36.50
2022-11-08T20:44:45.525Z,29.10
2022-11-08T20:45:48.686Z,36.00
2022-11-08T20:46:52.001Z,32.80
2022-11-08T20:47:55.302Z,35.80
2022-11-08T20:49:01.563Z,37.50
2022-11-08T20:50:04.625Z,35.40
2022-11-08T20:51:07.220Z,37.80
2022-11-08T20:52:09.882Z,35.10
2022-11-08T20:53:12.223Z,36.10
2022-11-08T20:54:15.275Z,27.10
2022-11-08T20:55:18.021Z,27.70
2022-11-08T20:56:21.923Z,34.60
2022-11-08T20:57:24.179Z,33.60
2022-11-08T20:58:28.191Z,33.00
2022-11-08T20:59:30.401Z,37.50
2022-11-08T21:00:56.940Z,33.60
2022-11-08T21:01:37.020Z,35.60
2022-11-08T21:02:40.095Z,35.00
2022-11-08T21:03:42.524Z,35.50
2022-11-08T21:04:44.541Z,36.20
2022-11-08T21:08:57.356Z,32.70
2022-11-08T21:10:41.442Z,33.30
2022-11-08T21:11:22.537Z,34.10
2022-11-08T21:12:24.966Z,35.45
2022-11-08T21:13:32.440Z,34.90
2022-11-08T21:14:34.738Z,34.10
2022-11-08T21:15:36.678Z,30.11
2022-11-08T21:17:06.627Z,33.00
2022-11-08T21:17:44.770Z,35.80
2022-11-08T21:18:47.882Z,31.40
2022-11-08T21:19:50.544Z,32.30
2022-11-08T21:21:16.659Z,34.60
2022-11-08T21:22:19.842Z,34.90
2022-11-08T21:23:22.038Z,34.70
2022-11-08T21:24:26.511Z,35.00
2022-11-08T21:25:29.389Z,33.90
2022-11-08T21:26:34.025Z,35.00
2022-11-08T21:27:35.596Z,36.80
2022-11-08T21:28:38.286Z,34.60
2022-11-08T21:29:40.394Z,32.90
2022-11-08T21:30:43.603Z,32.70
2022-11-08T21:31:45.690Z,30.91
2022-11-08T21:32:47.669Z,33.40
2022-11-08T21:33:50.747Z,34.30
2022-11-08T21:34:53.830Z,34.73
2022-11-08T21:35:56.566Z,33.91
2022-11-08T21:36:59.445Z,36.82
2022-11-08T21:38:02.850Z,32.20
2022-11-08T21:39:07.017Z,32.90
2022-11-08T21:40:11.481Z,34.40
2022-11-08T21:41:13.630Z,35.00
2022-11-08T21:42:15.663Z,33.80
2022-11-08T21:43:18.300Z,34.22
2022-11-08T21:44:20.402Z,31.60
2022-11-08T21:45:22.488Z,33.10
2022-11-08T21:46:25.531Z,9.80